Time;durP1;ratioP1;P1;durP2;ratioP2;P2;SDS_P1;SDS_P2;PMS_P1;PMS_P2;Temp;Humidity;BMP_temperature;BMP_pressure;BME280_temperature;BME280_humidity;BME280_pressure;Samples;Min_cycle;Max_cycle;Signal;HPM_P1;HPM_P2
2023/11/17 00:02:00;;;;;;;1.85;1.00;;;;;;;-0.01;61.51;99773.25;5051141;28;20223;-67
2023/11/17 00:04:25;;;;;;;1.17;0.88;;;;;;;-0.06;61.46;99750.66;5050873;28;20059;-67
2023/11/17 00:06:51;;;;;;;3.33;0.75;;;;;;;0.02;61.14;99766.16;5050963;28;20029;-68
2023/11/17 00:09:17;;;;;;;2.10;0.90;;;;;;;-0.01;61.12;99759.22;5050805;28;20037;-67
2023/11/17 00:11:42;;;;;;;2.05;0.70;;;;;;;0.01;61.12;99765.31;5050884;28;20055;-67
2023/11/17 00:14:08;;;;;;;1.55;1.10;;;;;;;-0.02;61.10;99768.03;5049650;28;20025;-67
2023/11/17 00:16:35;;;;;;;1.52;1.05;;;;;;;0.01;61.26;99775.84;5033342;28;20122;-67
2023/11/17 00:19:02;;;;;;;1.27;0.90;;;;;;;0.01;60.97;99785.50;5034163;28;20032;-67
2023/11/17 00:21:27;;;;;;;2.22;1.20;;;;;;;-0.02;61.00;99778.56;5050482;28;20104;-67
2023/11/17 00:23:53;;;;;;;1.23;0.93;;;;;;;-0.01;61.27;99773.25;5052611;28;20029;-67
2023/11/17 00:26:20;;;;;;;1.92;1.00;;;;;;;0.03;61.09;99787.19;5052413;28;20052;-67
2023/11/17 00:28:48;;;;;;;1.40;0.90;;;;;;;-0.19;60.92;99742.38;5050797;28;20134;-67
2023/11/17 00:31:13;;;;;;;1.30;1.08;;;;;;;-0.01;60.97;99773.25;5052451;28;20025;-66
2023/11/17 00:33:42;;;;;;;1.42;1.02;;;;;;;-0.02;60.71;99782.06;5050410;28;20613;-66
2023/11/17 00:36:09;;;;;;;2.67;1.20;;;;;;;0.02;60.82;99788.09;5051358;28;20025;-71
2023/11/17 00:38:36;;;;;;;1.10;0.90;;;;;;;0.01;60.77;99789.00;5052781;28;20025;-67
2023/11/17 00:41:03;;;;;;;1.42;1.05;;;;;;;-0.02;60.67;99784.72;5052642;28;20029;-67
2023/11/17 00:43:30;;;;;;;1.63;1.10;;;;;;;0.00;60.68;99784.66;5051451;28;20033;-67
2023/11/17 00:46:00;;;;;;;1.55;1.02;;;;;;;-0.24;60.54;99745.19;5049849;28;20144;-67
2023/11/17 00:48:29;;;;;;;1.23;0.90;;;;;;;0.14;60.94;99794.66;5033635;28;20180;-67
2023/11/17 00:50:55;;;;;;;1.65;1.00;;;;;;;0.11;60.65;99800.91;5032203;28;20034;-67
2023/11/17 00:53:25;;;;;;;1.13;1.00;;;;;;;-0.10;60.20;99760.47;5040932;28;20094;-68
2023/11/17 00:56:04;;;;;;;1.58;1.00;;;;;;;0.17;60.09;99798.94;5051495;28;20503;-66
2023/11/17 00:58:30;;;;;;;1.85;1.05;;;;;;;0.13;59.04;99796.44;5052025;28;20029;-66
2023/11/17 01:00:57;;;;;;;1.40;1.08;;;;;;;0.05;59.50;99806.41;5052159;28;20033;-66
2023/11/17 01:03:24;;;;;;;1.67;1.02;;;;;;;0.04;59.94;99801.19;5049029;28;20029;-67
2023/11/17 01:05:51;;;;;;;1.98;1.00;;;;;;;0.02;59.60;99801.25;5032349;28;20056;-66
2023/11/17 01:08:17;;;;;;;1.95;1.10;;;;;;;-0.01;59.76;99796.06;5032200;28;20363;-67
2023/11/17 01:10:44;;;;;;;1.67;1.00;;;;;;;0.02;59.71;99798.63;5048055;28;20033;-66
2023/11/17 01:13:10;;;;;;;1.55;1.08;;;;;;;0.06;59.97;99816.00;5049743;28;20033;-66
2023/11/17 01:15:36;;;;;;;1.50;0.95;;;;;;;-0.01;59.37;99817.13;5051667;28;20362;-67
2023/11/17 01:18:06;;;;;;;1.13;0.82;;;;;;;-0.31;59.93;99764.72;5051737;28;20078;-66
2023/11/17 01:20:36;;;;;;;1.63;0.80;;;;;;;0.01;59.48;99814.47;5051964;28;20025;-67
2023/11/17 01:23:03;;;;;;;1.52;1.30;;;;;;;-0.05;59.17;99816.41;5052081;28;20105;-65
2023/11/17 01:25:32;;;;;;;3.03;1.30;;;;;;;-0.05;59.38;99815.53;5051950;28;20049;-68
2023/11/17 01:27:58;;;;;;;1.83;1.10;;;;;;;-0.06;58.79;99824.34;5050310;28;20041;-67
2023/11/17 01:30:24;;;;;;;1.90;1.00;;;;;;;-0.10;58.87;99817.50;5051693;28;20033;-66
2023/11/17 01:32:51;;;;;;;1.15;0.90;;;;;;;-0.04;59.23;99828.66;5051144;28;20064;-66
2023/11/17 01:35:17;;;;;;;1.58;1.00;;;;;;;-0.06;59.24;99824.34;5049313;28;20043;-67
2023/11/17 01:37:43;;;;;;;1.52;1.00;;;;;;;-0.02;59.08;99825.94;5051616;28;20029;-67
2023/11/17 01:40:10;;;;;;;2.00;1.00;;;;;;;0.02;59.37;99826.69;5050849;28;20039;-67
2023/11/17 01:42:38;;;;;;;2.65;1.17;;;;;;;0.01;59.16;99831.13;5052288;28;20029;-67
2023/11/17 01:45:08;;;;;;;3.00;1.02;;;;;;;0.01;59.46;99833.75;5051222;28;20068;-66
2023/11/17 01:47:39;;;;;;;3.10;1.30;;;;;;;0.01;59.10;99840.78;5050818;28;20049;-69
2023/11/17 01:50:09;;;;;;;1.35;1.00;;;;;;;-0.01;58.93;99843.47;5048544;28;20048;-67
2023/11/17 01:52:37;;;;;;;2.67;1.30;;;;;;;-0.04;58.84;99843.56;5052010;28;20044;-67
2023/11/17 01:55:05;;;;;;;1.35;0.90;;;;;;;0.00;58.78;99858.38;5037914;28;20034;-67
2023/11/17 01:57:35;;;;;;;1.77;1.15;;;;;;;-0.05;58.86;99849.75;5034104;28;20037;-65
2023/11/17 02:00:06;;;;;;;3.70;1.38;;;;;;;-0.05;58.85;99858.53;5038639;28;20048;-66
2023/11/17 02:02:34;;;;;;;1.77;1.10;;;;;;;-0.06;59.34;99855.94;5035124;28;20456;-66
2023/11/17 02:05:01;;;;;;;2.88;1.00;;;;;;;-0.38;58.52;99813.22;5033971;28;20068;-66
2023/11/17 02:08:02;;;;;;;2.45;0.80;;;;;;;-0.12;58.67;99814.94;5034800;28;20105;-66
2023/11/17 02:10:33;;;;;;;2.08;1.15;;;;;;;0.00;57.55;99866.25;5034658;28;20136;-66
2023/11/17 02:13:11;;;;;;;3.22;1.38;;;;;;;0.05;57.53;99872.22;5035285;28;20044;-66
2023/11/17 02:15:40;;;;;;;3.03;1.20;;;;;;;-0.53;58.04;99820.72;5034393;28;20036;-66
2023/11/17 02:18:10;;;;;;;3.83;1.70;;;;;;;-0.29;58.50;99876.03;5048263;28;20029;-66
2023/11/17 02:20:37;;;;;;;2.35;1.30;;;;;;;-0.34;58.58;99865.69;5054870;28;20117;-67
2023/11/17 02:23:15;;;;;;;5.20;1.45;;;;;;;-0.27;58.89;99876.00;5054776;28;20029;-65
2023/11/17 02:26:15;;;;;;;2.15;1.10;;;;;;;-0.25;58.06;99871.53;5051888;28;20059;-67
2023/11/17 02:28:58;;;;;;;1.75;1.10;;;;;;;-0.29;56.76;99878.66;5035038;28;20052;-66
2023/11/17 02:31:35;;;;;;;2.42;1.27;;;;;;;-0.31;56.35;99884.00;5035703;28;20468;-65
2023/11/17 02:34:07;;;;;;;2.42;1.10;;;;;;;-0.16;55.48;99889.63;5033978;28;20057;-67
2023/11/17 02:36:33;;;;;;;2.05;1.15;;;;;;;-0.37;55.58;99894.72;5034779;28;20653;-66
2023/11/17 02:39:13;;;;;;;2.20;1.10;;;;;;;-0.42;55.35;99896.63;5035566;28;20033;-67
2023/11/17 02:41:56;;;;;;;2.28;1.38;;;;;;;-0.15;54.81;99892.22;5034893;28;20171;-66
2023/11/17 02:44:28;;;;;;;4.03;1.50;;;;;;;-0.62;55.56;99852.63;5033528;28;20026;-65
2023/11/17 02:46:59;;;;;;;3.38;1.48;;;;;;;-0.47;56.12;99896.81;5034530;28;20036;-66
2023/11/17 02:49:33;;;;;;;2.72;1.40;;;;;;;-0.37;56.02;99902.59;5047565;28;20037;-66
2023/11/17 02:52:08;;;;;;;3.00;1.88;;;;;;;-0.27;55.77;99900.50;5052309;28;20037;-67
2023/11/17 02:54:35;;;;;;;3.33;1.60;;;;;;;-0.44;56.36;99894.09;5054443;28;20464;-67
2023/11/17 02:57:03;;;;;;;5.53;2.03;;;;;;;-0.65;56.33;99853.56;5036696;28;20078;-66
2023/11/17 02:59:34;;;;;;;4.32;2.40;;;;;;;-0.60;57.13;99898.13;5051485;28;20032;-67
2023/11/17 03:02:04;;;;;;;2.97;2.03;;;;;;;-0.73;57.99;99888.00;5034116;28;20087;-66
2023/11/17 03:04:29;;;;;;;4.57;2.03;;;;;;;-0.89;57.98;99866.63;5033903;28;20025;-69
2023/11/17 03:06:56;;;;;;;3.78;2.00;;;;;;;-0.56;58.17;99915.53;5034923;28;20033;-67
2023/11/17 03:09:23;;;;;;;2.78;1.73;;;;;;;-0.54;58.43;99924.22;5050386;28;20032;-67
2023/11/17 03:11:52;;;;;;;3.38;1.98;;;;;;;-0.50;58.16;99925.81;5052660;28;20421;-66
2023/11/17 03:14:19;;;;;;;1.50;0.80;;;;;;;-0.26;57.61;99925.91;5053831;28;20104;-66
2023/11/17 03:16:49;;;;;;;3.05;1.88;;;;;;;-0.23;56.14;99922.31;5048737;28;20330;-67
2023/11/17 03:19:16;;;;;;;4.07;2.22;;;;;;;-0.50;57.22;99933.72;5035112;28;20040;-68
2023/11/17 03:21:41;;;;;;;2.85;1.70;;;;;;;-0.47;57.00;99930.13;5050634;28;20082;-67
2023/11/17 03:24:17;;;;;;;4.07;1.70;;;;;;;-0.37;56.13;99925.44;5051017;28;20037;-67
2023/11/17 03:26:45;;;;;;;6.18;1.73;;;;;;;-0.64;57.10;99918.41;5053843;28;20140;-67
2023/11/17 03:29:11;;;;;;;3.63;2.05;;;;;;;-0.59;58.25;99932.28;5053211;28;20381;-67
2023/11/17 03:31:37;;;;;;;3.70;1.40;;;;;;;-0.41;57.17;99935.19;5053474;28;20190;-67
2023/11/17 03:34:03;;;;;;;1.75;0.93;;;;;;;-0.13;56.88;99933.41;5052325;28;20147;-66
2023/11/17 03:36:28;;;;;;;3.85;1.73;;;;;;;-0.32;56.47;99929.63;5052284;28;20360;-67
2023/11/17 03:38:56;;;;;;;3.40;1.95;;;;;;;-0.46;57.37;99922.22;5051724;28;20017;-66
2023/11/17 03:41:22;;;;;;;2.80;1.50;;;;;;;-0.36;57.34;99937.66;5036172;28;20033;-67
2023/11/17 03:43:49;;;;;;;2.53;1.55;;;;;;;-0.48;56.60;99938.94;5032348;28;20029;-66
2023/11/17 03:46:15;;;;;;;3.50;2.00;;;;;;;-0.99;56.92;99893.25;5033412;28;20130;-66
2023/11/17 03:48:40;;;;;;;4.60;1.90;;;;;;;-0.90;57.76;99942.91;5033488;28;20448;-66
2023/11/17 03:51:07;;;;;;;3.35;1.70;;;;;;;-0.67;57.31;99938.69;5033964;28;20083;-65
2023/11/17 03:53:36;;;;;;;3.53;1.60;;;;;;;-0.63;56.63;99937.69;5033136;28;20116;-65
2023/11/17 03:56:03;;;;;;;3.47;1.75;;;;;;;-1.07;57.13;99891.72;5033260;28;20459;-67
2023/11/17 03:58:28;;;;;;;2.78;1.60;;;;;;;-0.92;57.85;99937.69;5033419;28;20456;-67
2023/11/17 04:00:55;;;;;;;4.38;1.70;;;;;;;-0.91;56.71;99926.25;5032363;28;20044;-66
2023/11/17 04:03:21;;;;;;;6.63;1.85;;;;;;;-0.92;57.01;99931.59;5032683;28;20045;-67
2023/11/17 04:05:47;;;;;;;3.92;1.88;;;;;;;-0.94;57.04;99934.25;5034088;28;20380;-66
2023/11/17 04:08:16;;;;;;;2.85;1.50;;;;;;;-0.72;55.88;99946.72;5034121;28;20368;-67
2023/11/17 04:10:45;;;;;;;3.80;1.50;;;;;;;-0.85;56.23;99941.00;5032936;28;20440;-65
2023/11/17 04:13:12;;;;;;;3.03;1.58;;;;;;;-1.02;56.36;99913.47;5031791;28;20133;-66
2023/11/17 04:15:37;;;;;;;4.07;1.98;;;;;;;-0.80;55.77;99943.47;5032457;28;20155;-67
2023/11/17 04:18:03;;;;;;;3.55;1.75;;;;;;;-0.89;56.33;99947.25;5048548;28;20351;-66
2023/11/17 04:20:29;;;;;;;3.30;1.85;;;;;;;-0.65;55.54;99953.50;5048429;28;20048;-66
2023/11/17 04:22:55;;;;;;;2.58;1.40;;;;;;;-0.81;55.54;99961.00;5052804;28;20033;-66
2023/11/17 04:25:22;;;;;;;4.90;1.60;;;;;;;-0.96;56.38;99953.63;5051362;28;20057;-67
2023/11/17 04:27:48;;;;;;;4.78;1.85;;;;;;;-1.09;56.76;99948.72;5052797;28;20048;-66
2023/11/17 04:30:14;;;;;;;2.50;1.38;;;;;;;-1.09;56.60;99948.72;5038212;28;20025;-66
2023/11/17 04:32:40;;;;;;;3.30;1.70;;;;;;;-1.02;56.69;99962.56;5015050;28;20049;-65
2023/11/17 04:35:08;;;;;;;2.70;1.33;;;;;;;-1.01;56.77;99965.13;5033462;28;20102;-66
2023/11/17 04:37:35;;;;;;;4.53;1.63;;;;;;;-0.96;56.71;99974.66;5032611;28;20037;-65
2023/11/17 04:40:01;;;;;;;7.78;1.77;;;;;;;-0.95;56.84;99979.84;5033391;28;20033;-66
2023/11/17 04:42:29;;;;;;;3.92;1.60;;;;;;;-0.94;56.36;99968.41;5032028;28;20075;-68
2023/11/17 04:44:55;;;;;;;4.95;1.92;;;;;;;-0.77;56.08;99973.16;5032291;28;20034;-66
2023/11/17 04:47:23;;;;;;;2.75;1.80;;;;;;;-0.77;55.66;99991.56;5033557;28;20028;-68
2023/11/17 04:49:48;;;;;;;2.88;1.67;;;;;;;-0.82;55.47;99982.94;5032479;28;20041;-68
2023/11/17 04:52:14;;;;;;;2.00;1.13;;;;;;;-0.78;55.06;99971.44;5032276;28;20048;-67
2023/11/17 04:54:40;;;;;;;2.55;1.63;;;;;;;-0.99;55.58;99990.50;5032123;28;20525;-66
2023/11/17 04:57:08;;;;;;;3.03;1.48;;;;;;;-1.17;56.93;99990.16;5032476;28;20042;-66
2023/11/17 04:59:34;;;;;;;3.20;1.80;;;;;;;-1.23;56.85;99987.69;5033095;28;20036;-65
2023/11/17 05:01:59;;;;;;;2.65;1.45;;;;;;;-1.21;56.97;99988.50;4998386;28;20025;-65
2023/11/17 05:04:25;;;;;;;6.35;1.75;;;;;;;-1.28;57.23;99994.84;5032603;28;20415;-67
2023/11/17 05:06:51;;;;;;;3.10;1.73;;;;;;;-1.31;56.93;99994.03;5031759;28;20025;-66
2023/11/17 05:09:17;;;;;;;3.47;1.90;;;;;;;-1.63;56.28;99917.03;5032197;28;20341;-67
2023/11/17 05:11:42;;;;;;;3.15;2.08;;;;;;;-1.30;56.74;100008.88;5014502;28;20044;-66
2023/11/17 05:14:08;;;;;;;4.07;1.85;;;;;;;-1.36;56.57;99997.69;5032359;28;20048;-65
2023/11/17 05:16:35;;;;;;;3.95;1.85;;;;;;;-1.38;56.64;99991.63;5050767;28;20029;-67
2023/11/17 05:19:03;;;;;;;6.03;2.40;;;;;;;-1.57;57.76;100012.28;5044647;28;20029;-66
2023/11/17 05:21:32;;;;;;;6.00;1.98;;;;;;;-1.69;57.41;100000.34;5030969;28;20037;-66
2023/11/17 05:23:59;;;;;;;3.08;1.30;;;;;;;-1.65;57.67;100028.25;5031313;28;20026;-67
2023/11/17 05:26:25;;;;;;;8.02;1.73;;;;;;;-1.85;58.21;100011.25;5031192;28;20494;-66
2023/11/17 05:28:51;;;;;;;5.53;1.67;;;;;;;-2.14;58.60;99985.81;5043043;28;20114;-66
2023/11/17 05:31:20;;;;;;;4.35;1.40;;;;;;;-1.77;58.86;100021.56;5053303;28;20037;-66
2023/11/17 05:33:46;;;;;;;3.95;2.00;;;;;;;-1.73;58.25;100031.06;5055853;28;20036;-66
2023/11/17 05:36:13;;;;;;;5.00;2.28;;;;;;;-1.97;59.09;100035.22;5055843;28;20043;-65
2023/11/17 05:38:38;;;;;;;5.78;2.10;;;;;;;-2.03;59.93;100038.84;5050142;28;20589;-65
2023/11/17 05:41:05;;;;;;;3.38;2.38;;;;;;;-2.29;59.36;99979.16;5017986;28;20071;-66
2023/11/17 05:43:31;;;;;;;3.70;1.27;;;;;;;-1.73;57.98;100025.81;5035704;28;20072;-66
2023/11/17 05:46:00;;;;;;;2.38;1.00;;;;;;;-1.47;57.01;100032.13;5034450;28;20061;-67
2023/11/17 05:48:26;;;;;;;9.93;2.03;;;;;;;-1.73;57.06;100020.56;5035178;28;20036;-68
2023/11/17 05:50:51;;;;;;;6.43;1.70;;;;;;;-2.15;57.85;100005.91;5035227;28;20021;-66
2023/11/17 05:53:17;;;;;;;4.65;1.92;;;;;;;-2.28;59.08;100013.22;5035287;28;20490;-66
2023/11/17 05:55:42;;;;;;;6.38;2.10;;;;;;;-1.96;59.13;100047.44;5035006;28;20045;-65
2023/11/17 05:58:08;;;;;;;5.28;2.47;;;;;;;-1.85;59.06;100055.03;5036050;28;20032;-66
2023/11/17 06:00:34;;;;;;;7.30;1.83;;;;;;;-1.64;57.36;100041.34;5034831;28;20112;-66
2023/11/17 06:02:59;;;;;;;3.83;1.98;;;;;;;-1.49;57.57;100054.94;5034089;28;20029;-67
2023/11/17 06:05:25;;;;;;;4.88;1.95;;;;;;;-0.74;55.84;100059.81;5033845;28;20044;-67
2023/11/17 06:07:51;;;;;;;9.35;2.25;;;;;;;1.01;54.07;100041.72;5050476;28;20437;-66
2023/11/17 06:10:16;;;;;;;6.78;2.28;;;;;;;4.38;47.13;100049.88;5054143;28;20445;-66
2023/11/17 06:12:42;;;;;;;5.00;2.42;;;;;;;7.54;40.32;100049.56;5052718;28;20037;-66
2023/11/17 06:15:10;;;;;;;4.40;1.90;;;;;;;8.94;37.46;100045.66;5054751;28;20196;-66
2023/11/17 06:17:36;;;;;;;3.10;1.90;;;;;;;10.23;34.41;100038.16;5052881;28;20033;-67
2023/11/17 06:20:03;;;;;;;5.65;2.28;;;;;;;11.86;31.71;100042.34;5054579;28;20040;-66
2023/11/17 06:22:31;;;;;;;3.63;1.83;;;;;;;13.39;29.21;100046.44;5052784;28;20048;-66
2023/11/17 06:24:57;;;;;;;3.60;1.95;;;;;;;14.29;27.47;100042.88;5054936;28;20053;-68
2023/11/17 06:27:23;;;;;;;3.92;1.85;;;;;;;15.33;26.11;100055.53;5054997;28;20039;-68
2023/11/17 06:29:53;;;;;;;10.02;1.85;;;;;;;16.03;24.74;100020.88;5054728;28;20452;-66
2023/11/17 06:32:18;;;;;;;5.00;1.90;;;;;;;16.73;23.58;100059.78;5055192;28;20055;-68
2023/11/17 06:34:46;;;;;;;5.82;1.90;;;;;;;16.52;23.47;100057.44;5055122;28;20436;-66
2023/11/17 06:37:12;;;;;;;3.35;1.63;;;;;;;15.33;24.30;100058.22;5053062;28;20028;-68
2023/11/17 06:39:39;;;;;;;2.85;2.10;;;;;;;13.62;25.54;100057.84;5053179;28;20044;-67
2023/11/17 06:42:05;;;;;;;3.70;1.83;;;;;;;11.92;27.84;100079.38;5054055;28;20031;-66
2023/11/17 06:44:30;;;;;;;3.10;1.75;;;;;;;9.95;29.68;100077.69;5054076;28;20086;-66
2023/11/17 06:46:56;;;;;;;4.50;2.30;;;;;;;8.09;33.15;100078.91;5052502;28;20033;-67
2023/11/17 06:49:22;;;;;;;4.97;2.15;;;;;;;6.66;34.90;100086.97;5053418;28;20047;-67
2023/11/17 06:51:50;;;;;;;4.38;1.98;;;;;;;5.60;37.32;100096.50;5054417;28;20061;-66
2023/11/17 06:54:18;;;;;;;5.75;2.13;;;;;;;4.71;39.04;100102.97;5052682;28;20911;-67
2023/11/17 06:56:46;;;;;;;8.60;2.30;;;;;;;4.25;39.64;100090.28;5053982;28;20059;-66
2023/11/17 06:59:15;;;;;;;3.72;2.30;;;;;;;4.23;38.63;100102.75;5051219;28;20035;-65
2023/11/17 07:01:41;;;;;;;5.05;2.28;;;;;;;3.63;40.52;100089.75;5053242;28;20371;-67
2023/11/17 07:04:08;;;;;;;4.20;2.50;;;;;;;3.48;40.21;100099.25;5052651;28;20321;-67
2023/11/17 07:06:34;;;;;;;7.55;2.53;;;;;;;3.44;40.95;100051.75;5052081;28;20086;-66
2023/11/17 07:09:43;;;;;;;5.90;2.35;;;;;;;5.62;37.51;100103.50;5053967;28;20072;-67
2023/11/17 07:11:51;;;;;;;6.82;2.20;;;;;;;9.40;31.76;100110.09;5054915;28;20056;-67
2023/11/17 07:14:21;;;;;;;5.28;2.17;;;;;;;11.20;28.36;100102.16;5052117;28;20028;-66
2023/11/17 07:16:48;;;;;;;3.70;1.90;;;;;;;11.79;27.45;100097.44;5053611;28;20120;-67
2023/11/17 07:19:17;;;;;;;6.00;1.80;;;;;;;11.34;27.95;100101.06;5038453;28;20025;-67
2023/11/17 07:21:45;;;;;;;4.07;1.70;;;;;;;10.19;29.21;100107.94;5033350;28;20042;-65
2023/11/17 07:24:11;;;;;;;6.57;1.83;;;;;;;8.89;30.50;100110.03;5032811;28;20329;-66
2023/11/17 07:26:38;;;;;;;3.08;2.00;;;;;;;7.71;32.22;100115.09;5031487;28;20064;-64
2023/11/17 07:29:05;;;;;;;6.05;2.50;;;;;;;6.61;33.78;100116.50;5034128;28;20038;-67
2023/11/17 07:31:37;;;;;;;5.25;2.78;;;;;;;5.43;35.91;100123.97;5033745;28;20033;-66
2023/11/17 07:34:07;;;;;;;6.70;2.47;;;;;;;4.51;38.49;100124.34;5032321;28;20036;-65
2023/11/17 07:36:37;;;;;;;4.15;2.17;;;;;;;3.73;39.50;100126.31;5033364;28;20045;-66
2023/11/17 07:39:03;;;;;;;8.68;2.50;;;;;;;3.13;40.55;100137.00;5049376;28;20025;-65
2023/11/17 07:41:30;;;;;;;4.50;1.95;;;;;;;2.65;41.22;100133.78;5045988;28;20071;-65
2023/11/17 07:43:58;;;;;;;8.50;2.20;;;;;;;2.26;42.58;100127.47;5046552;28;20040;-66
2023/11/17 07:46:27;;;;;;;5.20;1.85;;;;;;;2.14;42.41;100129.69;5038857;28;20071;-66
2023/11/17 07:48:54;;;;;;;6.88;2.17;;;;;;;1.81;43.16;100145.97;5051964;28;20193;-63
2023/11/17 07:51:21;;;;;;;8.27;2.03;;;;;;;1.36;44.30;100137.13;5052071;28;20538;-66
2023/11/17 07:53:47;;;;;;;8.00;2.40;;;;;;;1.42;44.18;100149.22;5050400;28;20033;-65
2023/11/17 07:56:14;;;;;;;5.20;2.20;;;;;;;0.98;45.28;100148.16;5047430;28;20468;-66
2023/11/17 07:58:41;;;;;;;5.07;2.00;;;;;;;0.60;45.99;100152.13;5052671;28;20028;-67
2023/11/17 08:01:08;;;;;;;6.35;2.50;;;;;;;0.32;46.70;100139.88;5052216;28;20087;-67
2023/11/17 08:03:35;;;;;;;2.97;1.10;;;;;;;0.20;46.88;100163.06;5047856;28;20037;-66
2023/11/17 08:06:02;;;;;;;4.65;2.20;;;;;;;-0.04;47.30;100155.06;5052691;28;20044;-64
2023/11/17 08:08:29;;;;;;;6.32;2.42;;;;;;;0.02;47.26;100167.16;5052439;28;20115;-67
2023/11/17 08:10:55;;;;;;;3.90;1.60;;;;;;;-0.08;47.36;100152.56;5050856;28;20029;-68
2023/11/17 08:13:22;;;;;;;6.35;1.70;;;;;;;-0.09;47.18;100166.63;5043455;28;20055;-67
2023/11/17 08:15:49;;;;;;;3.42;1.95;;;;;;;-0.34;47.90;100141.06;5032511;28;20037;-66
2023/11/17 08:18:18;;;;;;;5.57;1.92;;;;;;;-0.16;48.22;100166.81;5032470;28;20026;-66
2023/11/17 08:20:45;;;;;;;4.15;1.83;;;;;;;-0.01;47.40;100180.41;5031844;28;20037;-67
2023/11/17 08:23:11;;;;;;;5.57;2.50;;;;;;;0.11;47.80;100174.75;5031909;28;20332;-66
2023/11/17 08:25:38;;;;;;;7.40;2.38;;;;;;;0.27;47.10;100169.03;5041612;28;21110;-67
2023/11/17 08:28:05;;;;;;;12.43;2.47;;;;;;;0.40;46.73;100165.06;5050384;28;20048;-67
2023/11/17 08:30:30;;;;;;;4.35;2.00;;;;;;;0.55;46.37;100173.38;5051759;28;20051;-66
2023/11/17 08:32:57;;;;;;;5.10;1.73;;;;;;;0.65;45.52;100173.94;5049677;28;20447;-66
2023/11/17 08:35:23;;;;;;;4.63;1.60;;;;;;;0.52;45.33;100141.88;5040490;28;20044;-68
2023/11/17 08:37:52;;;;;;;3.75;2.05;;;;;;;0.69;45.60;100181.66;5035713;28;20029;-67
2023/11/17 08:40:19;;;;;;;4.22;1.85;;;;;;;0.50;45.32;100141.06;5031121;28;20029;-66
2023/11/17 08:42:46;;;;;;;3.30;1.50;;;;;;;0.65;45.47;100190.56;5042156;28;20101;-67
2023/11/17 08:45:12;;;;;;;7.38;1.88;;;;;;;0.12;46.54;100168.59;5052260;28;20108;-66
2023/11/17 08:47:40;;;;;;;2.05;1.42;;;;;;;0.03;47.23;100186.44;5052063;28;20040;-67
2023/11/17 08:50:09;;;;;;;2.58;1.33;;;;;;;0.00;47.17;100182.16;5046716;28;20091;-68
2023/11/17 08:52:37;;;;;;;2.35;1.30;;;;;;;-0.03;46.94;100182.22;5050411;28;20126;-68
2023/11/17 08:55:07;;;;;;;5.22;1.98;;;;;;;-0.12;47.39;100164.97;5047759;28;20388;-68
2023/11/17 08:57:37;;;;;;;3.47;2.00;;;;;;;-0.06;47.35;100190.22;5037812;28;20052;-67
2023/11/17 09:00:18;;;;;;;5.45;2.08;;;;;;;-0.08;47.34;100185.00;5049151;28;20029;-69
2023/11/17 09:02:45;;;;;;;5.68;1.67;;;;;;;-0.26;47.34;100152.22;5047576;28;20037;-68
2023/11/17 09:05:13;;;;;;;4.60;1.92;;;;;;;-0.01;47.16;100183.91;5051249;28;20333;-67
2023/11/17 09:07:45;;;;;;;6.82;1.67;;;;;;;0.06;46.96;100181.94;5056048;28;20029;-66
2023/11/17 09:10:16;;;;;;;3.38;1.60;;;;;;;0.14;47.47;100193.09;5051005;28;20029;-67
2023/11/17 09:12:42;;;;;;;3.38;1.90;;;;;;;0.14;47.50;100193.09;5047430;28;20124;-66
2023/11/17 09:15:13;;;;;;;2.38;1.30;;;;;;;0.23;47.48;100197.22;5036717;28;20417;-66
2023/11/17 09:17:40;;;;;;;4.03;1.90;;;;;;;0.26;47.62;100198.91;5055194;28;20029;-66
2023/11/17 09:20:13;;;;;;;2.50;1.80;;;;;;;0.29;47.68;100201.44;5055281;28;20064;-67
2023/11/17 09:22:40;;;;;;;5.95;1.63;;;;;;;0.27;47.51;100201.47;5055573;28;20021;-66
2023/11/17 09:25:16;;;;;;;6.80;1.90;;;;;;;0.30;47.70;100204.91;5054652;28;20384;-67
2023/11/17 09:27:51;;;;;;;5.65;2.03;;;;;;;0.32;47.93;100209.22;5048507;28;20036;-67
2023/11/17 09:30:16;;;;;;;5.20;1.77;;;;;;;0.31;47.86;100204.00;5035451;28;20037;-67
2023/11/17 09:32:44;;;;;;;4.75;1.40;;;;;;;0.34;47.86;100210.03;5035343;28;20132;-65
2023/11/17 09:35:16;;;;;;;7.85;2.30;;;;;;;0.39;47.63;100216.00;5039061;28;20060;-66
2023/11/17 09:37:53;;;;;;;2.58;1.40;;;;;;;0.32;47.66;100209.22;5054926;28;20402;-68
2023/11/17 09:40:23;;;;;;;3.92;1.63;;;;;;;0.30;48.07;100207.53;5055077;28;20043;-68
2023/11/17 09:42:53;;;;;;;5.72;2.22;;;;;;;0.23;48.14;100209.50;5054493;28;20029;-67
2023/11/17 09:45:26;;;;;;;8.65;1.77;;;;;;;0.14;47.81;100208.91;5054241;28;20414;-67
2023/11/17 09:48:01;;;;;;;6.38;1.65;;;;;;;-0.08;47.69;100194.66;5039965;28;20052;-66
2023/11/17 09:50:29;;;;;;;6.03;2.10;;;;;;;-0.05;47.89;100220.88;5034235;28;20029;-68
2023/11/17 09:52:57;;;;;;;5.15;1.95;;;;;;;-0.09;48.30;100216.63;5035424;28;20107;-66
2023/11/17 09:55:27;;;;;;;4.78;1.75;;;;;;;-0.12;48.58;100214.09;5037737;28;20037;-67
2023/11/17 09:57:57;;;;;;;3.63;1.67;;;;;;;-0.11;47.74;100208.81;5053867;28;20368;-65
2023/11/17 10:00:27;;;;;;;4.13;1.75;;;;;;;-0.04;47.95;100219.97;5052458;28;20033;-66
2023/11/17 10:03:00;;;;;;;8.73;2.85;;;;;;;0.06;48.10;100223.19;5049751;28;20032;-65
2023/11/17 10:05:31;;;;;;;6.45;2.70;;;;;;;0.08;48.16;100230.16;5053644;28;20524;-67
2023/11/17 10:08:06;;;;;;;3.20;2.03;;;;;;;-0.03;47.93;100234.88;5055072;28;20033;-70
2023/11/17 10:10:42;;;;;;;3.08;2.00;;;;;;;-0.46;48.64;100181.75;5047934;28;20037;-68
2023/11/17 10:13:11;;;;;;;4.80;1.80;;;;;;;-0.16;48.39;100235.25;5045663;28;20029;-67
2023/11/17 10:15:41;;;;;;;4.93;1.55;;;;;;;-0.41;48.74;100200.88;5054036;28;20523;-69
2023/11/17 10:18:08;;;;;;;3.15;1.30;;;;;;;-0.24;49.15;100247.78;5051878;28;20445;-66
2023/11/17 10:20:37;;;;;;;4.93;2.30;;;;;;;-0.27;49.13;100242.59;5050864;28;20040;-65
2023/11/17 10:23:07;;;;;;;5.72;2.28;;;;;;;-0.24;49.22;100250.41;5052852;28;20460;-66
2023/11/17 10:25:33;;;;;;;7.38;4.00;;;;;;;-0.49;49.77;100214.25;5036012;28;20191;-67
2023/11/17 10:28:02;;;;;;;3.05;2.17;;;;;;;-0.27;50.07;100250.47;5041740;28;20029;-67
2023/11/17 10:30:32;;;;;;;7.88;2.33;;;;;;;-0.57;50.23;100203.09;5054004;28;20037;-66
2023/11/17 10:33:23;;;;;;;6.78;2.60;;;;;;;-0.26;50.13;100235.56;5052915;28;20459;-69
2023/11/17 10:36:01;;;;;;;6.72;2.00;;;;;;;-0.26;50.77;100254.81;5049899;28;20112;-69
2023/11/17 10:38:28;;;;;;;5.43;2.15;;;;;;;-0.38;51.10;100255.19;5047166;28;20033;-66
2023/11/17 10:41:10;;;;;;;3.67;1.55;;;;;;;-0.42;51.17;100261.47;5045115;28;20045;-65
2023/11/17 10:43:48;;;;;;;2.25;1.58;;;;;;;-0.45;51.75;100265.91;5047524;28;20086;-67
2023/11/17 10:46:14;;;;;;;3.85;1.75;;;;;;;-0.78;52.13;100205.41;5038692;28;20025;-67
2023/11/17 10:48:42;;;;;;;3.83;1.73;;;;;;;-0.48;52.12;100276.50;5047018;28;20029;-67
2023/11/17 10:51:10;;;;;;;3.08;1.50;;;;;;;-0.48;52.19;100273.00;5040066;28;20424;-65
2023/11/17 10:53:36;;;;;;;2.63;1.75;;;;;;;-0.48;51.96;100276.50;5052136;28;20036;-66
2023/11/17 10:56:04;;;;;;;2.50;1.40;;;;;;;-0.45;52.18;100284.31;5033610;28;20029;-65
2023/11/17 10:58:29;;;;;;;3.55;2.30;;;;;;;-0.47;52.39;100272.09;5041292;28;20115;-67
2023/11/17 11:00:58;;;;;;;5.25;2.38;;;;;;;-0.54;52.34;100268.78;5054167;28;20116;-68
2023/11/17 11:03:23;;;;;;;3.97;2.10;;;;;;;-0.52;53.20;100269.59;5047925;28;20112;-69
2023/11/17 11:05:51;;;;;;;4.07;2.50;;;;;;;-0.49;52.95;100277.38;5032791;28;20112;-67
2023/11/17 11:08:18;;;;;;;6.93;2.88;;;;;;;-0.46;52.78;100274.69;5033829;28;20400;-68
2023/11/17 11:10:53;;;;;;;2.55;1.58;;;;;;;-0.36;52.39;100279.69;5037748;28;20043;-67
2023/11/17 11:13:29;;;;;;;3.58;2.10;;;;;;;-0.27;52.12;100268.91;5040045;28;20032;-67
2023/11/17 11:16:05;;;;;;;6.18;2.20;;;;;;;-0.36;52.19;100274.44;5051989;28;20341;-68
2023/11/17 11:18:35;;;;;;;3.95;1.83;;;;;;;-0.38;52.06;100279.72;5049200;28;20029;-67
2023/11/17 11:21:05;;;;;;;6.68;2.10;;;;;;;-0.45;51.66;100271.16;5054267;28;20359;-68
2023/11/17 11:23:31;;;;;;;4.63;2.45;;;;;;;-0.46;52.10;100286.97;5052633;28;20029;-69
2023/11/17 11:26:02;;;;;;;5.72;2.47;;;;;;;-0.51;52.27;100279.19;5052880;28;20063;-68
2023/11/17 11:28:31;;;;;;;5.85;2.28;;;;;;;-0.51;52.06;100281.84;5050954;28;20349;-70
2023/11/17 11:30:58;;;;;;;8.52;2.60;;;;;;;-0.44;51.60;100287.78;5053435;28;20064;-68
2023/11/17 11:33:24;;;;;;;4.45;2.38;;;;;;;-0.38;51.14;100305.19;5053189;28;20098;-71
2023/11/17 11:35:50;;;;;;;3.80;2.20;;;;;;;-0.46;51.13;100279.97;5037378;28;20390;-70
2023/11/17 11:38:18;;;;;;;3.97;1.65;;;;;;;-0.55;50.38;100246.00;5033055;28;20051;-69